createdAt,value
2024-03-12T00:00:15.219Z,-5.76
2024-03-12T00:02:45.777Z,-5.77
2024-03-12T00:05:19.021Z,-5.79
2024-03-12T00:07:47.294Z,-5.78
2024-03-12T00:10:17.480Z,-5.78
2024-03-12T00:12:48.430Z,-5.78
2024-03-12T00:15:17.709Z,-5.79
2024-03-12T00:17:45.567Z,-5.81
2024-03-12T00:20:24.802Z,-5.85
2024-03-12T00:22:51.596Z,-5.88
2024-03-12T00:25:19.867Z,-5.92
2024-03-12T00:27:47.268Z,-5.97
2024-03-12T00:30:15.601Z,-6.01
2024-03-12T00:32:44.022Z,-6.03
2024-03-12T00:35:13.658Z,-6.05
2024-03-12T00:37:41.908Z,-6.07
2024-03-12T00:40:13.172Z,-6.08
2024-03-12T00:42:44.021Z,-6.08
2024-03-12T00:45:12.272Z,-6.07
2024-03-12T00:47:41.541Z,-6.06
2024-03-12T00:50:11.946Z,-6.07
2024-03-12T00:52:40.777Z,-6.11
2024-03-12T00:55:10.881Z,-6.15
2024-03-12T00:57:39.229Z,-6.20
2024-03-12T01:00:26.522Z,-6.25
2024-03-12T01:02:55.627Z,-6.31
2024-03-12T01:05:26.922Z,-6.33
2024-03-12T01:07:55.011Z,-6.36
2024-03-12T01:10:22.325Z,-6.38
2024-03-12T01:12:52.185Z,-6.39
2024-03-12T01:15:20.441Z,-6.36
2024-03-12T01:17:52.080Z,-6.32
2024-03-12T01:20:21.299Z,-6.28
2024-03-12T01:22:52.147Z,-6.27
2024-03-12T01:25:22.097Z,-6.26
2024-03-12T01:27:49.737Z,-6.26
2024-03-12T01:30:21.217Z,-6.28
2024-03-12T01:32:48.476Z,-6.30
2024-03-12T01:35:15.669Z,-6.35
2024-03-12T01:37:46.089Z,-6.38
2024-03-12T01:40:22.276Z,-6.41
2024-03-12T01:42:54.430Z,-6.42
2024-03-12T01:45:23.660Z,-6.41
2024-03-12T01:47:52.233Z,-6.39
2024-03-12T01:50:20.603Z,-6.38
2024-03-12T01:52:48.277Z,-6.36
2024-03-12T01:55:15.676Z,-6.36
2024-03-12T01:57:43.792Z,-6.37
2024-03-12T02:00:13.820Z,-6.39
2024-03-12T02:02:42.577Z,-6.42
2024-03-12T02:05:13.555Z,-6.46
2024-03-12T02:07:40.502Z,-6.51
2024-03-12T02:10:08.915Z,-6.56
2024-03-12T02:12:36.015Z,-6.60
2024-03-12T02:15:06.434Z,-6.62
2024-03-12T02:17:33.586Z,-6.64
2024-03-12T02:20:00.773Z,-6.64
2024-03-12T02:22:30.711Z,-6.64
2024-03-12T02:24:59.635Z,-6.66
2024-03-12T02:27:26.519Z,-6.68
2024-03-12T02:29:54.613Z,-6.71
2024-03-12T02:32:23.407Z,-6.76
2024-03-12T02:34:51.110Z,-6.78
2024-03-12T02:37:21.804Z,-6.80
2024-03-12T02:39:48.746Z,-6.81
2024-03-12T02:42:16.097Z,-6.81
2024-03-12T02:44:43.214Z,-6.83
2024-03-12T02:47:10.224Z,-6.83
2024-03-12T02:49:37.458Z,-6.86
2024-03-12T02:52:04.945Z,-6.87
2024-03-12T02:54:32.051Z,-6.85
2024-03-12T02:56:59.041Z,-6.85
2024-03-12T02:59:27.886Z,-6.85
2024-03-12T03:01:57.799Z,-6.87
2024-03-12T03:04:24.706Z,-6.90
2024-03-12T03:06:58.294Z,-6.92
2024-03-12T03:09:26.877Z,-6.96
2024-03-12T03:11:53.791Z,-6.99
2024-03-12T03:14:21.247Z,-7.01
2024-03-12T03:16:48.727Z,-7.05
2024-03-12T03:19:15.804Z,-7.07
2024-03-12T03:21:42.965Z,-7.07
2024-03-12T03:24:09.769Z,-7.05
2024-03-12T09:36:46.130Z,5.29
2024-03-12T09:39:13.898Z,5.41
2024-03-12T09:41:48.733Z,5.44
2024-03-12T09:44:17.823Z,5.51
2024-03-12T09:46:46.849Z,5.55
2024-03-12T09:49:16.407Z,5.63
2024-03-12T09:51:44.147Z,5.71
2024-03-12T09:54:13.224Z,5.79
2024-03-12T09:56:42.233Z,5.86
2024-03-12T09:59:09.881Z,5.93
2024-03-12T10:01:40.053Z,5.99
2024-03-12T10:04:08.088Z,6.05
2024-03-12T10:06:36.886Z,6.10
2024-03-12T10:09:09.599Z,6.14
2024-03-12T10:11:37.448Z,6.21
2024-03-12T10:14:07.464Z,6.22
2024-03-12T10:16:35.960Z,6.22
2024-03-12T10:19:13.062Z,6.21
2024-03-12T10:21:41.877Z,6.25
2024-03-12T10:24:14.980Z,6.29
2024-03-12T10:26:43.927Z,6.30
2024-03-12T10:29:13.690Z,6.33
2024-03-12T10:31:44.980Z,6.30
2024-03-12T10:34:16.985Z,6.24
2024-03-12T10:36:50.920Z,6.24
2024-03-12T10:39:29.900Z,6.27
2024-03-12T10:42:00.943Z,6.24
2024-03-12T10:44:30.404Z,6.19
2024-03-12T10:47:02.087Z,6.19
2024-03-12T10:49:30.713Z,6.25
2024-03-12T10:51:59.542Z,6.29
2024-03-12T10:54:32.066Z,6.33
2024-03-12T10:57:04.271Z,6.35
2024-03-12T10:59:33.175Z,6.36
2024-03-12T11:02:06.101Z,6.37
2024-03-12T11:04:36.721Z,6.39
2024-03-12T11:07:05.406Z,6.40
2024-03-12T11:09:35.011Z,6.44
2024-03-12T11:12:05.346Z,6.55
2024-03-12T11:14:32.953Z,6.68
2024-03-12T11:17:01.830Z,6.82
2024-03-12T11:19:30.908Z,6.92
2024-03-12T11:22:12.473Z,6.98
2024-03-12T11:24:46.369Z,7.04
2024-03-12T11:27:20.673Z,7.06
2024-03-12T11:30:00.676Z,7.07
2024-03-12T11:32:30.922Z,7.07
2024-03-12T11:34:58.652Z,7.10
2024-03-12T11:37:26.370Z,7.18
2024-03-12T11:40:25.551Z,7.20
2024-03-12T11:42:56.220Z,7.04
2024-03-12T11:45:44.108Z,6.95
2024-03-12T11:48:14.696Z,6.90
2024-03-12T11:50:43.922Z,6.84
2024-03-12T11:53:22.871Z,6.74
2024-03-12T11:56:12.281Z,6.63
2024-03-12T11:58:51.702Z,6.52
2024-03-12T12:01:23.549Z,6.39
2024-03-12T12:04:02.933Z,6.28
2024-03-12T12:06:32.690Z,6.22
2024-03-12T12:09:10.746Z,6.19
2024-03-12T12:11:39.898Z,6.20
2024-03-12T12:14:10.433Z,6.24
2024-03-12T12:16:39.341Z,6.28
2024-03-12T12:19:14.019Z,6.32
2024-03-12T12:21:46.733Z,6.34
2024-03-12T12:24:15.198Z,6.34
2024-03-12T12:26:46.925Z,6.33
2024-03-12T12:29:16.055Z,6.28
2024-03-12T12:31:43.950Z,6.26
2024-03-12T12:34:12.538Z,6.24
2024-03-12T12:36:45.241Z,6.25
2024-03-12T12:39:13.733Z,6.25
2024-03-12T12:41:45.144Z,6.26
2024-03-12T12:44:18.523Z,6.27
2024-03-12T12:46:49.584Z,6.28
2024-03-12T12:49:18.933Z,6.27
2024-03-12T12:51:48.080Z,6.27
2024-03-12T12:54:20.263Z,6.29
2024-03-12T12:56:51.066Z,6.29
2024-03-12T12:59:24.680Z,6.28
2024-03-12T13:01:53.046Z,6.27
2024-03-12T13:04:28.709Z,6.27
2024-03-12T13:06:58.303Z,6.28
2024-03-12T13:09:35.382Z,6.30
2024-03-12T13:12:09.403Z,6.31
2024-03-12T13:14:38.608Z,6.32
2024-03-12T13:17:10.474Z,6.32
2024-03-12T13:19:38.377Z,6.31
2024-03-12T13:22:13.350Z,6.30
2024-03-12T13:24:45.593Z,6.28
2024-03-12T13:27:15.323Z,6.22
2024-03-12T13:29:46.793Z,6.16
2024-03-12T13:32:14.488Z,6.12
2024-03-12T13:34:42.064Z,6.09
2024-03-12T13:37:09.861Z,6.05
2024-03-12T13:39:37.560Z,6.02
2024-03-12T13:42:06.659Z,5.98
2024-03-12T13:44:34.506Z,5.91
2024-03-12T13:47:04.515Z,5.81
2024-03-12T13:49:32.663Z,5.72
2024-03-12T13:52:00.874Z,5.64
2024-03-12T13:54:28.658Z,5.56
2024-03-12T13:56:56.265Z,5.49
2024-03-12T13:59:24.112Z,5.43
2024-03-12T14:01:52.859Z,5.38
2024-03-12T14:04:20.632Z,5.32
2024-03-12T14:06:48.963Z,5.27
2024-03-12T14:09:16.993Z,5.22
2024-03-12T14:11:44.802Z,5.17
2024-03-12T14:14:12.623Z,5.13
2024-03-12T14:16:40.779Z,5.10
2024-03-12T14:19:08.616Z,5.06
2024-03-12T14:21:37.251Z,5.01
2024-03-12T14:24:06.078Z,4.96
2024-03-12T14:26:34.016Z,4.92
2024-03-12T14:29:01.624Z,4.88
2024-03-12T14:31:29.993Z,4.84
2024-03-12T14:33:57.753Z,4.81
2024-03-12T14:36:25.819Z,4.77
2024-03-12T14:38:55.149Z,4.72
2024-03-12T14:41:24.306Z,4.68
2024-03-12T14:43:52.058Z,4.63
2024-03-12T14:46:20.217Z,4.58
2024-03-12T14:48:48.156Z,4.53
2024-03-12T14:51:15.981Z,4.47
2024-03-12T14:53:43.761Z,4.42
2024-03-12T14:56:11.420Z,4.36
2024-03-12T14:58:38.992Z,4.30
2024-03-12T15:01:07.816Z,4.24
2024-03-12T15:03:37.628Z,4.20
2024-03-12T15:06:05.398Z,4.15
2024-03-12T15:08:33.061Z,4.09
2024-03-12T15:11:00.660Z,4.05
2024-03-12T15:13:29.077Z,4.00
2024-03-12T15:15:56.764Z,3.96
2024-03-12T15:18:24.715Z,3.92
2024-03-12T15:20:53.441Z,3.86
2024-03-12T15:23:22.027Z,3.81
2024-03-12T15:25:50.349Z,3.75
2024-03-12T15:28:18.124Z,3.69
2024-03-12T15:30:49.065Z,3.63
2024-03-12T15:33:17.479Z,3.58
2024-03-12T15:35:46.830Z,3.53
2024-03-12T15:38:14.991Z,3.48
2024-03-12T15:40:42.736Z,3.42
2024-03-12T15:43:10.674Z,3.38
2024-03-12T15:45:38.716Z,3.31
2024-03-12T15:48:09.104Z,3.25
2024-03-12T15:50:39.840Z,3.19
2024-03-12T15:53:07.631Z,3.13
2024-03-12T15:55:37.185Z,3.08
2024-03-12T15:58:05.123Z,3.04
2024-03-12T16:00:35.546Z,2.99
2024-03-12T16:03:03.628Z,2.94
2024-03-12T16:05:31.888Z,2.88
2024-03-12T16:08:01.731Z,2.85
2024-03-12T16:10:31.117Z,2.82
2024-03-12T16:12:58.833Z,2.79
2024-03-12T16:15:27.449Z,2.75
2024-03-12T16:17:56.408Z,2.69
2024-03-12T16:20:24.390Z,2.64
2024-03-12T16:22:52.009Z,2.58
2024-03-12T16:25:19.733Z,2.50
2024-03-12T16:27:47.654Z,2.44
2024-03-12T16:30:16.307Z,2.38
2024-03-12T16:32:44.687Z,2.31
2024-03-12T16:35:12.740Z,2.26
2024-03-12T16:37:40.422Z,2.21
2024-03-12T16:40:09.651Z,2.16
2024-03-12T16:42:37.750Z,2.11
2024-03-12T16:45:06.999Z,2.06
2024-03-12T16:47:35.253Z,2.01
2024-03-12T16:50:09.578Z,1.96
2024-03-12T16:52:40.376Z,1.90
2024-03-12T16:55:08.913Z,1.85
2024-03-12T16:57:37.093Z,1.82
2024-03-12T17:00:07.465Z,1.79
2024-03-12T17:02:43.592Z,1.76
2024-03-12T17:05:13.337Z,1.73
2024-03-12T17:07:41.724Z,1.71
2024-03-12T17:10:09.922Z,1.67
2024-03-12T17:12:37.922Z,1.65
2024-03-12T17:15:06.345Z,1.63
2024-03-12T17:17:34.753Z,1.62
2024-03-12T17:20:06.108Z,1.60
2024-03-12T17:22:34.168Z,1.59
2024-03-12T17:25:02.317Z,1.56
2024-03-12T17:27:32.351Z,1.55
2024-03-12T17:30:03.250Z,1.54
2024-03-12T17:32:31.977Z,1.54
2024-03-12T17:35:01.043Z,1.54
2024-03-12T17:37:35.445Z,1.53
2024-03-12T17:40:13.779Z,1.53
2024-03-12T17:42:45.824Z,1.52
2024-03-12T17:45:14.958Z,1.52
2024-03-12T17:47:52.666Z,1.52
2024-03-12T17:50:22.756Z,1.51
2024-03-12T17:52:58.948Z,1.50
2024-03-12T17:55:28.036Z,1.48
2024-03-12T17:57:56.419Z,1.48
2024-03-12T18:00:25.568Z,1.47
2024-03-12T18:02:56.172Z,1.45
2024-03-12T18:05:24.132Z,1.43
2024-03-12T18:07:53.599Z,1.42
2024-03-12T18:10:26.269Z,1.40
2024-03-12T18:12:54.482Z,1.38
2024-03-12T18:15:24.929Z,1.36
2024-03-12T18:17:53.577Z,1.35
2024-03-12T18:20:25.672Z,1.33
2024-03-12T18:22:54.450Z,1.30
2024-03-12T18:25:22.598Z,1.29
2024-03-12T18:27:57.170Z,1.26
2024-03-12T18:30:26.203Z,1.23
2024-03-12T18:32:55.775Z,1.20
2024-03-12T18:35:24.044Z,1.18
2024-03-12T18:37:52.307Z,1.15
2024-03-12T18:40:21.325Z,1.13
2024-03-12T18:42:49.812Z,1.10
2024-03-12T18:45:19.880Z,1.07
2024-03-12T18:47:49.573Z,1.03
2024-03-12T18:50:18.609Z,1.00
2024-03-12T18:52:46.809Z,0.96
2024-03-12T18:55:15.069Z,0.93
2024-03-12T18:57:44.796Z,0.90
2024-03-12T19:00:20.277Z,0.87
2024-03-12T19:02:49.816Z,0.84
2024-03-12T19:05:21.929Z,0.81
2024-03-12T19:07:52.340Z,0.77
2024-03-12T19:10:21.371Z,0.73
2024-03-12T19:12:50.748Z,0.70
2024-03-12T19:15:26.852Z,0.66
2024-03-12T19:23:00.377Z,0.53
2024-03-12T19:25:28.182Z,0.48
2024-03-12T19:27:56.393Z,0.44
2024-03-12T19:30:26.145Z,0.40
2024-03-12T19:32:54.627Z,0.36
2024-03-12T19:35:22.996Z,0.31
2024-03-12T19:37:51.018Z,0.26
2024-03-12T19:40:22.986Z,0.22
2024-03-12T19:42:51.490Z,0.18
2024-03-12T19:45:24.354Z,0.15
2024-03-12T19:47:52.843Z,0.10
2024-03-12T19:50:24.257Z,0.06
2024-03-12T19:52:54.290Z,0.02
2024-03-12T19:55:27.070Z,-0.03
2024-03-12T19:57:56.740Z,-0.06
2024-03-12T20:00:27.384Z,-0.10
2024-03-12T20:02:57.922Z,-0.14
2024-03-12T20:05:31.842Z,-0.18
2024-03-12T20:08:05.914Z,-0.20
2024-03-12T20:10:34.114Z,-0.22
2024-03-12T20:13:05.828Z,-0.25
2024-03-12T20:15:34.399Z,-0.26
2024-03-12T20:18:02.618Z,-0.29
2024-03-12T20:20:30.680Z,-0.30
2024-03-12T20:22:59.950Z,-0.31
2024-03-12T20:25:27.804Z,-0.30
2024-03-12T20:27:56.707Z,-0.32
2024-03-12T20:30:31.292Z,-0.32
2024-03-12T20:33:00.217Z,-0.32
2024-03-12T20:35:29.307Z,-0.33
2024-03-12T20:37:57.220Z,-0.34
2024-03-12T20:40:27.162Z,-0.36
2024-03-12T20:42:59.923Z,-0.40
2024-03-12T20:45:28.672Z,-0.41
2024-03-12T20:47:56.344Z,-0.43
2024-03-12T20:50:23.997Z,-0.45
2024-03-12T20:52:52.223Z,-0.46
2024-03-12T20:55:20.431Z,-0.48
2024-03-12T20:57:49.372Z,-0.49
2024-03-12T21:00:19.732Z,-0.50
2024-03-12T21:02:48.816Z,-0.52
2024-03-12T21:05:17.597Z,-0.53
2024-03-12T21:07:46.288Z,-0.55
2024-03-12T21:10:14.153Z,-0.56
2024-03-12T21:12:46.506Z,-0.57
2024-03-12T21:15:17.375Z,-0.59
2024-03-12T21:17:46.281Z,-0.61
2024-03-12T21:20:25.993Z,-0.63
2024-03-12T21:22:53.694Z,-0.65
2024-03-12T21:25:21.692Z,-0.67
2024-03-12T21:27:49.587Z,-0.69
2024-03-12T21:30:20.329Z,-0.71
2024-03-12T21:32:48.996Z,-0.74
2024-03-12T21:35:17.036Z,-0.75
2024-03-12T21:37:46.149Z,-0.78
2024-03-12T21:40:13.862Z,-0.80
2024-03-12T21:42:44.069Z,-0.80
2024-03-12T21:45:13.071Z,-0.81
2024-03-12T21:47:46.144Z,-0.82
2024-03-12T21:50:16.438Z,-0.82
2024-03-12T21:52:44.586Z,-0.82
2024-03-12T21:55:12.676Z,-0.81
2024-03-12T21:57:44.682Z,-0.80
2024-03-12T22:00:20.626Z,-0.79
2024-03-12T22:02:49.834Z,-0.77
2024-03-12T22:05:20.980Z,-0.76
2024-03-12T22:07:51.019Z,-0.73
2024-03-12T22:10:22.353Z,-0.71
2024-03-12T22:12:50.032Z,-0.70
2024-03-12T22:15:17.616Z,-0.69
2024-03-12T22:17:51.293Z,-0.68
2024-03-12T22:20:19.962Z,-0.67
2024-03-12T22:22:48.902Z,-0.66
2024-03-12T22:25:20.963Z,-0.65
2024-03-12T22:27:49.664Z,-0.64
2024-03-12T22:30:18.503Z,-0.64
2024-03-12T22:32:47.415Z,-0.64
2024-03-12T22:35:15.147Z,-0.64
2024-03-12T22:37:44.906Z,-0.66
2024-03-12T22:40:14.014Z,-0.67
2024-03-12T22:42:42.840Z,-0.69
2024-03-12T22:45:12.824Z,-0.70
2024-03-12T22:47:41.218Z,-0.71
2024-03-12T22:50:10.044Z,-0.74
2024-03-12T22:52:37.922Z,-0.75
2024-03-12T22:55:07.453Z,-0.77
2024-03-12T22:57:39.673Z,-0.79
2024-03-12T23:00:36.050Z,-0.80
2024-03-12T23:03:04.712Z,-0.82
2024-03-12T23:05:36.106Z,-0.84
2024-03-12T23:08:08.044Z,-0.85
2024-03-12T23:10:37.079Z,-0.86
2024-03-12T23:13:05.216Z,-0.87
2024-03-12T23:15:36.367Z,-0.87
2024-03-12T23:18:04.930Z,-0.88
2024-03-12T23:20:33.581Z,-0.88
2024-03-12T23:23:01.548Z,-0.88
2024-03-12T23:25:30.320Z,-0.89
2024-03-12T23:27:58.228Z,-0.90
2024-03-12T23:30:26.997Z,-0.91
2024-03-12T23:32:59.461Z,-0.91
2024-03-12T23:35:30.835Z,-0.92
2024-03-12T23:37:58.424Z,-0.92
2024-03-12T23:40:27.241Z,-0.93
2024-03-12T23:42:56.007Z,-0.95
2024-03-12T23:45:24.180Z,-0.95
2024-03-12T23:47:53.055Z,-0.96
2024-03-12T23:50:20.891Z,-0.98
2024-03-12T23:52:50.185Z,-0.98
2024-03-12T23:55:17.945Z,-0.99
2024-03-12T23:57:45.640Z,-1.00
